createdAt,value
2019-06-07T00:00:48.995Z,5.83
2019-06-07T00:03:55.402Z,8.43
2019-06-07T00:07:01.289Z,7.47
2019-06-07T00:10:07.108Z,7.93
2019-06-07T00:13:17.078Z,7.93
2019-06-07T00:16:23.239Z,6.43
2019-06-07T00:19:28.243Z,5.03
2019-06-07T00:22:35.032Z,6.63
2019-06-07T00:25:41.030Z,6.70
2019-06-07T00:28:46.991Z,8.60
2019-06-07T00:31:53.305Z,5.47
2019-06-07T00:34:59.475Z,7.77
2019-06-07T00:38:05.651Z,6.70
2019-06-07T00:41:12.521Z,6.33
2019-06-07T00:44:22.661Z,8.87
2019-06-07T00:47:26.483Z,7.47
2019-06-07T00:50:32.646Z,6.80
2019-06-07T00:53:38.607Z,6.83
2019-06-07T00:56:44.886Z,8.60
2019-06-07T00:59:50.722Z,9.30
2019-06-07T01:02:56.749Z,7.33
2019-06-07T01:06:03.606Z,7.13
2019-06-07T01:09:09.560Z,8.13
2019-06-07T01:12:19.052Z,8.93
2019-06-07T01:15:28.825Z,8.73
2019-06-07T01:18:39.094Z,9.03
2019-06-07T01:21:38.601Z,9.40
2019-06-07T01:24:45.063Z,8.93
2019-06-07T01:27:51.474Z,10.73
2019-06-07T01:30:57.631Z,9.67
2019-06-07T01:34:03.756Z,9.23
2019-06-07T01:37:10.107Z,12.90
2019-06-07T01:40:17.157Z,12.20
2019-06-07T01:43:28.183Z,13.00
2019-06-07T01:46:31.582Z,13.10
2019-06-07T01:49:37.509Z,12.63
2019-06-07T01:52:44.617Z,14.47
2019-06-07T01:55:50.752Z,11.97
2019-06-07T01:58:57.111Z,11.83
2019-06-07T02:02:03.619Z,14.67
2019-06-07T02:05:09.636Z,12.00
2019-06-07T02:08:15.743Z,13.20
2019-06-07T02:11:22.446Z,13.10
2019-06-07T02:14:32.963Z,11.37
2019-06-07T02:17:37.829Z,11.80
2019-06-07T02:20:44.125Z,12.33
2019-06-07T02:23:50.175Z,11.20
2019-06-07T02:26:56.469Z,12.43
2019-06-07T02:30:35.079Z,12.20
2019-06-07T02:33:10.614Z,10.13
2019-06-07T02:36:16.715Z,10.20
2019-06-07T02:39:25.481Z,12.27
2019-06-07T02:42:39.010Z,12.90
2019-06-07T02:45:43.532Z,12.53
2019-06-07T02:48:46.610Z,10.73
2019-06-07T02:51:52.560Z,12.50
2019-06-07T02:54:58.381Z,12.77
2019-06-07T02:58:04.579Z,13.83
2019-06-07T03:01:10.560Z,12.77
2019-06-07T03:04:17.194Z,12.50
2019-06-07T03:07:23.508Z,10.93
2019-06-07T03:10:31.405Z,12.80
2019-06-07T03:13:37.753Z,11.63
2019-06-07T03:16:51.090Z,11.80
2019-06-07T03:19:58.428Z,13.37
2019-06-07T03:22:29.295Z,11.67
2019-06-07T03:25:01.435Z,11.30
2019-06-07T03:27:40.617Z,11.87
2019-06-07T03:30:35.341Z,10.10
2019-06-07T03:32:45.720Z,12.63
2019-06-07T03:35:08.389Z,11.20
2019-06-07T03:37:42.614Z,11.63
2019-06-07T03:40:11.227Z,12.70
2019-06-07T03:42:41.612Z,13.67
2019-06-07T03:45:12.052Z,13.00
2019-06-07T03:47:43.285Z,12.87
2019-06-07T03:50:13.726Z,14.60
2019-06-07T03:52:44.061Z,15.00
2019-06-07T03:55:14.455Z,16.27
2019-06-07T03:58:30.202Z,15.47
2019-06-07T04:00:17.846Z,15.63
2019-06-07T04:02:48.215Z,14.20
2019-06-07T04:05:18.528Z,13.93
2019-06-07T04:07:48.900Z,18.07
2019-06-07T04:10:19.272Z,17.60
2019-06-07T04:12:49.624Z,17.43
2019-06-07T04:15:19.998Z,15.10
2019-06-07T04:18:01.720Z,17.73
2019-06-07T04:20:22.558Z,15.73
2019-06-07T04:22:52.912Z,15.60
2019-06-07T04:25:23.395Z,15.57
2019-06-07T04:27:53.707Z,14.47
2019-06-07T04:30:41.826Z,16.00
2019-06-07T04:33:13.680Z,17.30
2019-06-07T04:35:45.325Z,17.80
2019-06-07T04:38:16.581Z,15.00
2019-06-07T04:40:47.199Z,15.13
2019-06-07T04:43:17.641Z,17.93
2019-06-07T04:45:51.550Z,17.23
2019-06-07T04:48:22.567Z,16.10
2019-06-07T04:50:54.389Z,16.30
2019-06-07T04:53:24.755Z,14.17
2019-06-07T04:55:55.226Z,15.97
2019-06-07T04:58:25.608Z,15.50
2019-06-07T05:01:02.611Z,15.60
2019-06-07T05:03:30.557Z,17.53
2019-06-07T05:06:00.079Z,18.10
2019-06-07T05:08:33.204Z,15.83
2019-06-07T05:11:02.487Z,18.97
2019-06-07T05:13:37.765Z,17.20
2019-06-07T05:16:04.921Z,15.87
2019-06-07T05:18:36.333Z,21.10
2019-06-07T05:21:07.457Z,25.40
2019-06-07T05:26:09.966Z,18.23
2019-06-07T05:28:42.821Z,15.43
2019-06-07T05:31:12.849Z,19.60
2019-06-07T05:33:43.612Z,23.10
2019-06-07T05:36:14.152Z,45.33
2019-06-07T05:38:45.167Z,28.40
2019-06-07T05:41:15.705Z,25.80
2019-06-07T05:44:00.222Z,23.03
2019-06-07T05:46:18.156Z,24.30
2019-06-07T05:48:48.928Z,29.93
2019-06-07T05:51:19.655Z,28.60
2019-06-07T05:53:50.145Z,20.77
2019-06-07T05:56:20.578Z,23.50
2019-06-07T05:58:50.952Z,25.90
2019-06-07T06:03:53.467Z,32.50
2019-06-07T06:06:23.829Z,26.03
2019-06-07T06:09:12.801Z,28.03
2019-06-07T06:11:43.147Z,25.30
2019-06-07T06:14:07.415Z,31.83
2019-06-07T06:16:31.721Z,27.37
2019-06-07T06:19:02.174Z,35.33
2019-06-07T06:21:32.608Z,29.10
2019-06-07T06:24:02.986Z,20.57
2019-06-07T06:26:33.456Z,19.33
2019-06-07T06:29:03.852Z,17.02
2019-06-07T06:31:34.197Z,14.33
2019-06-07T06:34:04.583Z,15.28
2019-06-07T06:36:35.263Z,15.80
2019-06-07T06:39:06.922Z,20.20
2019-06-07T06:41:50.755Z,15.20
2019-06-07T06:44:09.480Z,16.87
2019-06-07T06:46:46.165Z,13.75
2019-06-07T06:49:12.049Z,13.13
2019-06-07T06:51:46.990Z,12.35
2019-06-07T06:54:14.451Z,13.75
2019-06-07T06:56:45.653Z,13.03
2019-06-07T07:01:50.964Z,16.62
2019-06-07T07:04:21.208Z,19.32
2019-06-07T07:06:53.711Z,16.60
2019-06-07T07:09:24.076Z,17.90
2019-06-07T07:12:10.214Z,19.07
2019-06-07T07:14:26.709Z,20.13
2019-06-07T07:16:57.749Z,22.20
2019-06-07T07:19:30.282Z,18.23
2019-06-07T07:22:01.051Z,19.57
2019-06-07T07:24:31.558Z,16.93
2019-06-07T07:27:01.939Z,16.07
2019-06-07T07:29:32.477Z,17.67
2019-06-07T07:32:02.829Z,15.13
2019-06-07T07:34:36.921Z,14.15
2019-06-07T07:37:05.553Z,12.63
2019-06-07T07:39:35.985Z,15.28
2019-06-07T07:42:20.127Z,10.25
2019-06-07T07:44:39.107Z,12.20
2019-06-07T07:47:09.795Z,11.35
2019-06-07T07:49:40.265Z,11.35
2019-06-07T07:52:10.699Z,10.80
2019-06-07T07:54:41.135Z,11.80
2019-06-07T07:57:11.496Z,10.60
2019-06-07T07:59:57.242Z,10.95
2019-06-07T08:02:14.028Z,11.22
2019-06-07T08:07:16.539Z,12.18
2019-06-07T08:09:48.077Z,12.13
2019-06-07T08:12:19.327Z,11.68
2019-06-07T08:14:51.134Z,10.15
2019-06-07T08:17:21.869Z,0.62
2019-06-07T08:19:54.314Z,0.10
2019-06-07T08:22:24.386Z,0.00
2019-06-07T08:24:55.964Z,0.10
2019-06-07T08:27:27.174Z,0.00
2019-06-07T08:30:16.074Z,0.10
2019-06-07T08:32:29.653Z,0.00
2019-06-07T08:35:05.941Z,0.10
2019-06-07T08:38:14.103Z,0.03
2019-06-07T08:40:04.621Z,0.10
2019-06-07T08:42:37.256Z,0.10
2019-06-07T08:45:07.306Z,0.00
2019-06-07T08:47:37.754Z,0.10
2019-06-07T08:50:08.566Z,0.05
2019-06-07T08:52:39.208Z,0.10
2019-06-07T08:55:09.947Z,0.10
2019-06-07T08:57:40.391Z,0.10
2019-06-07T09:00:42.343Z,0.10
2019-06-07T09:02:43.434Z,0.10
2019-06-07T09:05:14.707Z,0.10
2019-06-07T09:07:45.069Z,0.00
2019-06-07T09:10:15.871Z,0.10
2019-06-07T09:12:46.400Z,0.10
2019-06-07T09:15:23.515Z,0.00
2019-06-07T09:18:34.898Z,0.00
2019-06-07T09:20:36.378Z,0.10
2019-06-07T09:22:59.094Z,0.20
2019-06-07T09:25:26.210Z,0.40
2019-06-07T09:28:00.668Z,0.85
2019-06-07T09:30:47.205Z,1.65
2019-06-07T09:33:17.581Z,3.83
2019-06-07T09:35:49.220Z,6.10
2019-06-07T09:38:25.685Z,6.47
2019-06-07T09:40:51.758Z,9.35
2019-06-07T09:45:54.275Z,11.20
2019-06-07T09:49:09.123Z,12.33
2019-06-07T09:51:02.149Z,9.15
2019-06-07T09:53:29.237Z,11.75
2019-06-07T09:56:03.529Z,8.58
2019-06-07T09:58:51.026Z,11.18
2019-06-07T10:01:09.912Z,9.70
2019-06-07T10:03:35.974Z,8.53
2019-06-07T10:06:12.383Z,7.80
2019-06-07T10:09:57.022Z,9.03
2019-06-07T10:11:12.537Z,3.42
2019-06-07T10:13:42.918Z,0.35
2019-06-07T10:16:13.321Z,0.10
2019-06-07T10:18:43.705Z,0.10
2019-06-07T10:21:14.997Z,0.00
2019-06-07T10:23:45.784Z,0.10
2019-06-07T10:26:16.148Z,0.10
2019-06-07T10:28:46.680Z,0.10
2019-06-07T10:31:17.038Z,0.10
2019-06-07T10:33:47.385Z,0.10
2019-06-07T10:36:17.775Z,0.10
2019-06-07T10:38:48.814Z,0.10
2019-06-07T10:41:19.595Z,0.10
2019-06-07T10:43:49.989Z,0.20
2019-06-07T10:46:20.420Z,0.17
2019-06-07T10:48:50.854Z,0.20
2019-06-07T10:51:21.231Z,0.20
2019-06-07T10:53:51.587Z,0.20
2019-06-07T10:56:21.974Z,0.10
2019-06-07T10:58:52.336Z,0.10
2019-06-07T11:01:22.673Z,0.10
2019-06-07T11:03:53.282Z,0.10
2019-06-07T11:06:23.622Z,0.10
2019-06-07T11:08:53.969Z,0.10
2019-06-07T11:11:24.394Z,0.10
2019-06-07T11:13:54.746Z,0.10
2019-06-07T11:16:25.158Z,0.10
2019-06-07T11:18:55.546Z,0.10
2019-06-07T11:21:25.891Z,0.10
2019-06-07T11:23:56.270Z,0.10
2019-06-07T11:26:26.773Z,0.10
2019-06-07T11:28:57.209Z,0.10
2019-06-07T11:31:27.685Z,0.00
2019-06-07T11:33:58.028Z,0.10
2019-06-07T11:36:28.704Z,0.10
2019-06-07T11:38:59.478Z,0.00
2019-06-07T11:41:29.941Z,0.10
2019-06-07T11:44:00.302Z,0.10
2019-06-07T11:46:30.772Z,0.00
2019-06-07T11:49:01.271Z,0.10
2019-06-07T11:51:31.589Z,0.10
2019-06-07T11:54:02.118Z,0.17
2019-06-07T11:56:32.517Z,0.10
2019-06-07T11:59:02.933Z,0.30
2019-06-07T12:01:33.327Z,0.30
2019-06-07T12:04:03.735Z,0.30
2019-06-07T12:06:34.096Z,0.45
2019-06-07T12:09:05.899Z,0.57
2019-06-07T12:11:36.378Z,1.00
2019-06-07T12:14:06.971Z,0.80
2019-06-07T12:16:37.484Z,0.90
2019-06-07T12:19:09.542Z,1.12
2019-06-07T12:21:40.501Z,1.32
2019-06-07T12:24:12.152Z,1.98
2019-06-07T12:26:42.580Z,3.12
2019-06-07T12:29:13.176Z,2.98
2019-06-07T12:31:43.607Z,3.55
2019-06-07T12:34:15.446Z,3.65
2019-06-07T12:36:46.078Z,4.28
2019-06-07T12:39:16.463Z,4.25
2019-06-07T12:41:46.832Z,3.90
2019-06-07T12:44:18.522Z,5.17
2019-06-07T12:46:49.445Z,6.10
2019-06-07T12:49:21.099Z,3.95
2019-06-07T12:51:51.639Z,4.58
2019-06-07T12:54:22.016Z,4.87
2019-06-07T12:56:52.578Z,5.62
2019-06-07T12:59:24.198Z,6.67
2019-06-07T13:01:54.783Z,4.10
2019-06-07T13:04:25.260Z,4.95
2019-06-07T13:06:55.628Z,6.80
2019-06-07T13:09:26.073Z,6.87
2019-06-07T13:11:56.504Z,6.83
2019-06-07T13:14:28.447Z,6.05
2019-06-07T13:16:59.304Z,6.25
2019-06-07T13:19:29.798Z,5.30
2019-06-07T13:22:00.189Z,6.28
2019-06-07T13:24:30.660Z,7.75
2019-06-07T13:27:01.052Z,6.78
2019-06-07T13:29:32.263Z,5.15
2019-06-07T13:32:02.974Z,6.92
2019-06-07T13:34:33.331Z,6.12
2019-06-07T13:37:03.754Z,5.20
2019-06-07T13:39:34.156Z,7.15
2019-06-07T13:42:04.543Z,8.33
2019-06-07T13:44:34.970Z,6.67
2019-06-07T13:47:05.429Z,5.80
2019-06-07T13:49:35.784Z,6.87
2019-06-07T13:52:06.174Z,6.75
2019-06-07T13:54:36.604Z,5.90
2019-06-07T13:57:06.928Z,6.97
2019-06-07T13:59:37.289Z,6.75
2019-06-07T14:02:07.645Z,6.25
2019-06-07T14:04:38.491Z,7.22
2019-06-07T14:07:09.274Z,6.40
2019-06-07T14:09:39.732Z,7.92
2019-06-07T14:12:10.181Z,8.50
2019-06-07T14:14:40.594Z,6.17
2019-06-07T14:17:10.920Z,6.37
2019-06-07T14:19:43.584Z,8.65
2019-06-07T14:22:13.958Z,10.35
2019-06-07T14:24:44.323Z,9.33
2019-06-07T14:27:14.737Z,7.50
2019-06-07T14:29:45.055Z,7.23
2019-06-07T14:32:15.431Z,7.47
2019-06-07T14:34:45.815Z,8.43
2019-06-07T14:37:16.166Z,5.20
2019-06-07T14:39:46.557Z,7.15
2019-06-07T14:42:16.960Z,5.97
2019-06-07T14:44:47.426Z,7.70
2019-06-07T14:47:17.790Z,7.60
2019-06-07T14:49:48.919Z,6.92
2019-06-07T14:52:19.651Z,7.72
2019-06-07T14:54:50.058Z,8.50
2019-06-07T14:57:21.286Z,6.73
2019-06-07T14:59:51.737Z,7.57
2019-06-07T15:02:22.128Z,6.53
2019-06-07T15:04:52.480Z,8.35
2019-06-07T15:07:22.889Z,8.07
2019-06-07T15:09:53.242Z,6.83
2019-06-07T15:12:25.331Z,6.80
2019-06-07T15:14:55.673Z,6.57
2019-06-07T15:17:26.490Z,6.80
2019-06-07T15:19:57.529Z,5.93
2019-06-07T15:22:28.044Z,5.27
2019-06-07T15:24:58.384Z,7.30
2019-06-07T15:27:29.148Z,5.63
2019-06-07T15:29:59.627Z,5.75
2019-06-07T15:32:30.612Z,6.85
2019-06-07T15:35:01.512Z,9.90
2019-06-07T15:37:32.563Z,5.97
2019-06-07T15:40:03.105Z,7.10
2019-06-07T15:42:47.668Z,7.43
2019-06-07T15:45:05.882Z,6.62
2019-06-07T15:47:36.250Z,7.97
2019-06-07T15:50:07.265Z,5.77
2019-06-07T15:52:38.280Z,6.00
2019-06-07T15:55:10.248Z,5.73
2019-06-07T15:57:42.254Z,5.97
2019-06-07T16:00:14.852Z,7.73
2019-06-07T16:02:45.241Z,6.30
2019-06-07T16:05:16.236Z,5.63
2019-06-07T16:07:46.684Z,5.37
2019-06-07T16:10:17.228Z,5.97
2019-06-07T16:12:59.684Z,6.27
2019-06-07T16:15:19.916Z,7.30
2019-06-07T16:17:50.311Z,6.27
2019-06-07T16:20:20.781Z,4.50
2019-06-07T16:22:51.141Z,6.97
2019-06-07T16:25:21.520Z,5.10
2019-06-07T16:27:51.891Z,6.27
2019-06-07T16:30:22.354Z,5.43
2019-06-07T16:32:53.486Z,6.47
2019-06-07T16:35:23.976Z,4.80
2019-06-07T16:37:54.324Z,5.47
2019-06-07T16:40:24.658Z,4.37
2019-06-07T16:42:55.031Z,6.00
2019-06-07T16:45:25.460Z,6.10
2019-06-07T16:47:55.806Z,5.20
2019-06-07T16:50:26.231Z,6.07
2019-06-07T16:52:56.653Z,5.47
2019-06-07T16:55:27.017Z,4.33
2019-06-07T16:57:57.414Z,5.37
2019-06-07T17:00:27.984Z,5.03
2019-06-07T17:02:58.436Z,4.97
2019-06-07T17:05:28.828Z,5.70
2019-06-07T17:07:59.243Z,4.33
2019-06-07T17:10:29.609Z,6.40
2019-06-07T17:12:59.960Z,6.47
2019-06-07T17:15:30.366Z,5.37
2019-06-07T17:18:00.710Z,6.43
2019-06-07T17:20:31.168Z,5.03
2019-06-07T17:23:01.544Z,4.87
2019-06-07T17:25:31.895Z,5.10
2019-06-07T17:28:02.250Z,4.70
2019-06-07T17:30:32.578Z,4.67
2019-06-07T17:33:02.954Z,4.60
2019-06-07T17:35:33.296Z,5.33
2019-06-07T17:38:03.789Z,6.93
2019-06-07T17:40:34.145Z,6.33
2019-06-07T17:43:04.508Z,5.03
2019-06-07T17:45:34.911Z,4.90
2019-06-07T17:48:05.370Z,5.93
2019-06-07T17:50:35.787Z,4.90
2019-06-07T17:53:06.158Z,7.53
2019-06-07T17:55:36.598Z,4.10
2019-06-07T17:58:06.989Z,4.20
2019-06-07T18:00:51.227Z,4.50
2019-06-07T18:03:21.791Z,4.70
2019-06-07T18:05:53.784Z,4.17
2019-06-07T18:08:25.436Z,5.43
2019-06-07T18:10:55.838Z,5.17
2019-06-07T18:13:26.290Z,5.80
2019-06-07T18:15:59.441Z,6.33
2019-06-07T18:18:29.182Z,9.30
2019-06-07T18:20:59.753Z,8.50
2019-06-07T18:23:30.133Z,8.87
2019-06-07T18:26:00.500Z,7.73
2019-06-07T18:28:30.835Z,9.33
2019-06-07T18:31:01.177Z,9.30
2019-06-07T18:33:31.653Z,9.13
2019-06-07T18:36:02.137Z,11.17
2019-06-07T18:38:32.690Z,9.70
2019-06-07T18:41:03.084Z,10.93
2019-06-07T18:43:34.450Z,9.20
2019-06-07T18:46:04.849Z,9.60
2019-06-07T18:48:35.231Z,11.50
2019-06-07T18:51:05.833Z,11.00
2019-06-07T18:53:36.318Z,13.83
2019-06-07T18:56:06.701Z,10.93
2019-06-07T18:58:37.042Z,10.40
2019-06-07T19:01:07.443Z,8.67
2019-06-07T19:03:37.867Z,11.93
2019-06-07T19:06:08.857Z,9.03
2019-06-07T19:08:39.614Z,9.30
2019-06-07T19:11:10.008Z,13.50
2019-06-07T19:13:40.372Z,13.60
2019-06-07T19:16:10.762Z,11.73
2019-06-07T19:18:41.199Z,14.20
2019-06-07T19:21:11.597Z,14.57
2019-06-07T19:23:42.039Z,13.90
2019-06-07T19:26:12.582Z,14.90
2019-06-07T19:28:43.033Z,15.03
2019-06-07T19:31:13.389Z,10.47
2019-06-07T19:33:48.981Z,14.57
2019-06-07T19:36:16.021Z,9.63
2019-06-07T19:38:46.424Z,10.10
2019-06-07T19:41:19.598Z,15.03
2019-06-07T19:43:48.879Z,13.67
2019-06-07T19:46:19.319Z,15.87
2019-06-07T19:48:49.752Z,13.90
2019-06-07T19:51:20.501Z,11.17
2019-06-07T19:53:50.986Z,7.33
2019-06-07T19:56:21.329Z,7.77
2019-06-07T19:58:51.773Z,6.83
2019-06-07T20:01:22.160Z,11.20
2019-06-07T20:03:53.735Z,7.63
2019-06-07T20:06:24.148Z,8.40
2019-06-07T20:08:54.518Z,7.60
2019-06-07T20:11:24.884Z,10.27
2019-06-07T20:13:56.260Z,8.77
2019-06-07T20:16:26.809Z,8.37
2019-06-07T20:18:58.134Z,10.90
2019-06-07T20:21:28.677Z,8.20
2019-06-07T20:24:01.650Z,9.97
2019-06-07T20:26:31.319Z,21.73
2019-06-07T20:29:01.950Z,16.37
2019-06-07T20:31:32.330Z,16.40
2019-06-07T20:34:05.778Z,17.77
2019-06-07T20:36:37.571Z,16.70
2019-06-07T20:39:08.499Z,18.10
2019-06-07T20:41:39.371Z,17.43
2019-06-07T20:44:10.814Z,15.53
2019-06-07T20:46:41.315Z,19.83
2019-06-07T20:49:47.877Z,19.13
2019-06-07T20:52:54.316Z,14.57
2019-06-07T20:56:00.566Z,14.50
2019-06-07T20:59:07.017Z,18.23
2019-06-07T21:02:13.638Z,20.90
2019-06-07T21:05:20.222Z,18.37
2019-06-07T21:07:50.837Z,16.47
2019-06-07T21:10:21.276Z,17.30
2019-06-07T21:12:51.807Z,19.57
2019-06-07T21:15:22.327Z,21.10
2019-06-07T21:17:52.857Z,17.63
2019-06-07T21:20:23.364Z,16.77
2019-06-07T21:22:53.732Z,12.23
2019-06-07T21:25:24.222Z,14.97
2019-06-07T21:27:54.695Z,18.37
2019-06-07T21:30:25.034Z,21.27
2019-06-07T21:32:55.498Z,20.90
2019-06-07T21:35:25.884Z,20.73
2019-06-07T21:37:56.313Z,20.90
2019-06-07T21:40:26.966Z,22.23
2019-06-07T21:42:57.352Z,16.97
2019-06-07T21:45:27.792Z,20.53
2019-06-07T21:47:58.780Z,13.40
2019-06-07T21:50:29.601Z,22.27
2019-06-07T21:52:59.958Z,21.97
2019-06-07T21:55:30.501Z,21.37
2019-06-07T21:58:00.944Z,22.17
2019-06-07T22:01:17.366Z,17.00
2019-06-07T22:03:48.253Z,19.07
2019-06-07T22:06:18.941Z,20.60
2019-06-07T22:08:49.742Z,22.30
2019-06-07T22:11:20.088Z,21.50
2019-06-07T22:13:50.512Z,20.63
2019-06-07T22:16:28.464Z,21.10
2019-06-07T22:18:52.969Z,20.77
2019-06-07T22:21:23.328Z,20.07
2019-06-07T22:23:53.752Z,23.43
2019-06-07T22:26:24.124Z,20.60
2019-06-07T22:28:54.512Z,20.77
2019-06-07T22:31:24.939Z,22.00
2019-06-07T22:33:55.358Z,21.80
2019-06-07T22:36:25.735Z,21.43
2019-06-07T22:38:56.213Z,22.00
2019-06-07T22:41:26.746Z,21.33
2019-06-07T22:43:57.130Z,23.83
2019-06-07T22:46:36.969Z,22.17
2019-06-07T22:48:59.756Z,22.63
2019-06-07T22:51:30.118Z,24.07
2019-06-07T22:54:00.519Z,28.43
2019-06-07T22:56:45.009Z,26.03
2019-06-07T22:59:18.724Z,25.10
2019-06-07T23:01:47.438Z,25.10
2019-06-07T23:04:19.325Z,25.30
2019-06-07T23:06:49.784Z,27.43
2019-06-07T23:09:20.135Z,25.97
2019-06-07T23:11:50.572Z,27.17
2019-06-07T23:14:20.942Z,28.73
2019-06-07T23:16:55.486Z,31.23
2019-06-07T23:19:23.420Z,28.90
2019-06-07T23:21:53.802Z,28.33
2019-06-07T23:24:24.288Z,28.57
2019-06-07T23:26:54.698Z,27.73
2019-06-07T23:29:25.539Z,29.33
2019-06-07T23:31:55.932Z,30.90
2019-06-07T23:34:26.345Z,27.93
2019-06-07T23:36:56.746Z,29.80
2019-06-07T23:39:27.167Z,30.23
2019-06-07T23:41:57.564Z,26.50
2019-06-07T23:44:27.980Z,30.50
2019-06-07T23:47:10.680Z,29.93
2019-06-07T23:49:30.476Z,26.33
2019-06-07T23:52:01.240Z,28.83
2019-06-07T23:54:31.655Z,29.60
2019-06-07T23:57:02.054Z,25.03
2019-06-07T23:59:32.518Z,25.70
